Flight Track Log - Related Links

Times and Time Zones

All times are in EDT time to prevent confusion due to time zone crossing. See the DAL268 flight status page for this flight to view local times or setup timezone preferences in your user account.

Time Position Orientation Groundspeed Altitude Reporting Facility
EDT Latitude Longitude Course Direction KTS MPH feet Rate Location/Type
Mon 02:37:25 PM 37.6680 -122.3410 27° Northeast 211 243 2,000  Level FlightAware ADS-B
Mon 02:37:41 PM 37.6849 -122.3300 27° Northeast 234 269 2,500 2,063 Climbing FlightAware ADS-B
Mon 02:37:57 PM 37.7006 -122.3200 27° Northeast 250 288 3,100 2,516 Climbing FlightAware ADS-B
Mon 02:38:12 PM 37.7172 -122.3090 28° Northeast 260 299 3,800 2,750 Climbing FlightAware ADS-B
Mon 02:38:21 PM 37.7271 -122.3030 26° Northeast 265 305 4,200 2,667 Climbing FlightAware ADS-B
Mon 02:38:39 PM 37.7475 -122.2910 25° Northeast 272 313 5,000 2,824 Climbing FlightAware ADS-B
Mon 02:38:55 PM 37.7658 -122.2800 25° Northeast 278 320 5,800 3,091 Climbing FlightAware ADS-B
Mon 02:39:12 PM 37.7857 -122.2680 25° Northeast 278 320 6,700 2,800 Climbing FlightAware ADS-B
Mon 02:39:40 PM 37.8159 -122.2430 33° Northeast 277 319 7,900 2,478 Climbing FlightAware ADS-B
Mon 02:39:58 PM 37.8342 -122.2230 41° Northeast 277 319 8,600 2,667 Climbing FlightAware ADS-B
Mon 02:40:16 PM 37.8531 -122.2010 43° Northeast 302 348 9,500 2,500 Climbing FlightAware ADS-B
Mon 02:40:46 PM 37.8851 -122.1650 42° Northeast 317 365 10,600 1,672 Climbing FlightAware ADS-B
Mon 02:41:17 PM 37.9212 -122.1260 40° Northeast 351 404 11,200 1,161 Climbing FlightAware ADS-B
Mon 02:41:48 PM 37.9613 -122.0820 41° Northeast 384 442 11,800 1,770 Climbing FlightAware ADS-B
Mon 02:42:18 PM 38.0029 -122.0370 40° Northeast 394 453 13,000 2,361 Climbing FlightAware ADS-B
Mon 02:42:49 PM 38.0457 -121.9900 41° Northeast 401 461 14,200 2,364 Climbing FlightAware ADS-B
Mon 02:43:24 PM 38.0957 -121.9360 40° Northeast 403 464 15,600 2,242 Climbing FlightAware ADS-B
Mon 02:44:20 PM 38.1750 -121.8480 41° Northeast 423 487 17,600 2,065 Climbing FlightAware ADS-B
Mon 02:44:57 PM 38.2310 -121.7870 41° Northeast 435 501 18,800 1,917 Climbing FlightAware ADS-B
Mon 02:45:32 PM 38.2850 -121.7280 41° Northeast 442 509 19,900 1,970 Climbing FlightAware ADS-B
Mon 02:46:04 PM 38.3350 -121.6720 41° Northeast 450 518 21,000 1,853 Climbing FlightAware ADS-B
Mon 02:46:40 PM 38.3930 -121.6070 41° Northeast 460 529 22,000 1,667 Climbing FlightAware ADS-B
Mon 02:47:16 PM 38.4470 -121.5410 44° Northeast 469 540 23,000 1,606 Climbing FlightAware ADS-B
Mon 02:47:51 PM 38.4940 -121.4670 51° Northeast 475 547 23,900 1,579 Climbing FlightAware ADS-B
Mon 02:48:32 PM 38.5490 -121.3730 53° Northeast 482 555 25,000 1,583 Climbing FlightAware ADS-B
Mon 02:49:03 PM 38.5900 -121.3010 54° Northeast 488 562 25,800 1,457 Climbing FlightAware ADS-B
Mon 02:49:42 PM 38.6450 -121.2070 53° Northeast 495 570 26,700 1,250 Climbing FlightAware ADS-B
Mon 02:50:15 PM 38.6860 -121.1360 53° Northeast 502 578 27,300 1,217 Climbing FlightAware ADS-B
Mon 02:50:51 PM 38.7390 -121.0430 54° Northeast 509 586 28,100 1,352 Climbing FlightAware ADS-B
Mon 02:51:26 PM 38.7900 -120.9550 53° Northeast 514 592 28,900 1,565 Climbing FlightAware ADS-B
Mon 02:52:00 PM 38.8370 -120.8720 54° Northeast 510 587 29,900 1,629 Climbing FlightAware ADS-B
Mon 02:52:36 PM 38.8860 -120.7890 53° Northeast 508 585 30,800 1,500 Climbing FlightAware ADS-B
Mon 02:53:12 PM 38.9390 -120.6970 53° Northeast 508 585 31,700 1,412 Climbing FlightAware ADS-B
Mon 02:53:44 PM 38.9810 -120.6240 53° Northeast 506 582 32,400 1,130 Climbing FlightAware ADS-B
Mon 02:54:21 PM 39.0340 -120.5330 53° Northeast 508 585 33,000 500 Climbing FlightAware ADS-B
Mon 02:54:56 PM 39.0820 -120.4490 54° Northeast 510 587 33,000  Level FlightAware ADS-B
Mon 02:55:31 PM 39.1320 -120.3620 53° Northeast 510 587 33,000  Level FlightAware ADS-B
Mon 02:56:03 PM 39.1780 -120.2820 53° Northeast 510 587 33,000  Level FlightAware ADS-B
Mon 02:56:39 PM 39.2280 -120.1930 54° Northeast 510 587 33,000 83 Level FlightAware ADS-B
Mon 02:57:15 PM 39.2780 -120.1050 54° Northeast 511 588 33,100 833 Climbing FlightAware ADS-B
Mon 02:57:51 PM 39.3280 -120.0180 53° Northeast 506 582 34,000 1,333 Climbing FlightAware ADS-B
Mon 02:58:27 PM 39.3770 -119.9300 54° Northeast 504 580 34,700 1,200 Climbing FlightAware ADS-B
Mon 02:59:01 PM 39.4230 -119.8490 54° Northeast 501 577 35,400 1,200 Climbing FlightAware ADS-B
Mon 02:59:37 PM 39.4720 -119.7610 54° Northeast 501 577 36,100 1,014 Climbing FlightAware ADS-B
Mon 03:00:12 PM 39.5200 -119.6760 54° Northeast 502 578 36,600 750 Climbing FlightAware ADS-B
Mon 03:00:49 PM 39.5700 -119.5880 54° Northeast 502 578 37,000 348 Climbing FlightAware ADS-B
Mon 03:01:21 PM 39.6140 -119.5090 54° Northeast 497 572 37,000  Level FlightAware ADS-B
Mon 03:01:55 PM 39.6590 -119.4270 55° Northeast 497 572 37,000  Level FlightAware ADS-B
Mon 03:02:31 PM 39.7060 -119.3430 54° Northeast 497 572 37,000  Level FlightAware ADS-B
Mon 03:03:05 PM 39.7530 -119.2590 54° Northeast 498 573 37,000  Level FlightAware ADS-B
Mon 03:03:41 PM 39.8020 -119.1680 55° Northeast 498 573 37,000  Level FlightAware ADS-B
Mon 03:04:17 PM 39.8500 -119.0820 54° Northeast 498 573 37,000  Level FlightAware ADS-B
Mon 03:04:41 PM 39.8830 -119.0220 54° Northeast 499 574 37,000  Level FlightAware ADS-B
Mon 03:05:17 PM 39.9310 -118.9340 55° Northeast 500 575 37,000  Level FlightAware ADS-B
Mon 03:05:51 PM 39.9760 -118.8520 54° Northeast 501 577 37,000  Level FlightAware ADS-B
Mon 03:06:31 PM 40.0300 -118.7540 54° Northeast 501 577 37,000  Level FlightAware ADS-B
Mon 03:07:11 PM 40.0840 -118.6540 55° Northeast 500 575 37,000  Level FlightAware ADS-B
Mon 03:07:49 PM 40.1290 -118.5560 59° Northeast 499 574 37,000  Level FlightAware ADS-B
Mon 03:08:21 PM 40.1560 -118.4650 69° East 497 572 37,000  Level FlightAware ADS-B
Mon 03:08:57 PM 40.1840 -118.3660 70° East 497 572 37,000  Level FlightAware ADS-B
Mon 03:09:31 PM 40.2100 -118.2690 71° East 496 571 37,000  Level FlightAware ADS-B
Mon 03:10:07 PM 40.2370 -118.1700 70° East 495 570 37,000  Level FlightAware ADS-B
Mon 03:10:49 PM 40.2700 -118.0490 70° East 495 570 37,000  Level FlightAware ADS-B
Mon 03:11:19 PM 40.2930 -117.9660 70° East 494 568 37,000  Level FlightAware ADS-B
Mon 03:11:58 PM 40.3180 -117.8730 71° East 494 568 37,000  Level FlightAware ADS-B
Mon 03:12:50 PM 40.3600 -117.7190 70° East 492 566 37,000  Level FlightAware ADS-B
Mon 03:13:26 PM 40.3830 -117.6330 71° East 492 566 37,000  Level FlightAware ADS-B
Mon 03:14:03 PM 40.4080 -117.5450 70° East 492 566 37,000  Level FlightAware ADS-B
Mon 03:14:42 PM 40.4340 -117.4520 70° East 492 566 37,000  Level FlightAware ADS-B
Mon 03:15:19 PM 40.4580 -117.3640 70° East 492 566 37,000  Level FlightAware ADS-B
Mon 03:15:56 PM 40.4830 -117.2750 70° East 492 566 37,000  Level FlightAware ADS-B
Mon 03:16:32 PM 40.5060 -117.1890 71° East 492 566 37,000  Level FlightAware ADS-B
Mon 03:17:08 PM 40.5300 -117.1030 70° East 492 566 37,000  Level FlightAware ADS-B
Mon 03:17:43 PM 40.5530 -117.0190 70° East 492 566 37,000  Level FlightAware ADS-B
Mon 03:18:17 PM 40.5760 -116.9380 69° East 492 566 37,000  Level FlightAware ADS-B
Mon 03:18:53 PM 40.6000 -116.8520 70° East 492 566 37,000  Level FlightAware ADS-B
Mon 03:19:29 PM 40.6230 -116.7650 71° East 492 566 37,000  Level FlightAware ADS-B
Mon 03:20:06 PM 40.6480 -116.6770 69° East 492 566 37,000  Level FlightAware ADS-B
Mon 03:20:42 PM 40.6720 -116.5900 70° East 492 566 37,000  Level FlightAware ADS-B
Mon 03:21:19 PM 40.6960 -116.5020 70° East 492 566 37,000  Level FlightAware ADS-B
Mon 03:21:55 PM 40.7200 -116.4150 70° East 492 566 37,000  Level FlightAware ADS-B
Mon 03:24:06 PM 40.9732 -115.8770 58° Northeast 486 559 37,000  Level FlightAware ADS-B
Mon 03:24:39 PM 41.0066 -115.7890 63° Northeast 485 558 37,000  Level FlightAware ADS-B
Mon 03:25:26 PM 41.0541 -115.6640 63° Northeast 484 557 37,000  Level FlightAware ADS-B
Mon 03:26:18 PM 41.1050 -115.5280 64° Northeast 483 556 37,000  Level FlightAware ADS-B
Mon 03:27:02 PM 41.1480 -115.4130 64° Northeast 482 555 37,000  Level FlightAware ADS-B
Mon 03:27:38 PM 41.1840 -115.3170 63° Northeast 481 554 37,000  Level FlightAware ADS-B
Mon 03:28:14 PM 41.2199 -115.2210 64° Northeast 481 554 37,000  Level FlightAware ADS-B
Mon 03:28:54 PM 41.2588 -115.1160 64° Northeast 480 552 37,000  Level FlightAware ADS-B
Mon 03:29:25 PM 41.2895 -115.0330 64° Northeast 480 552 37,000  Level FlightAware ADS-B
Mon 03:29:56 PM 41.3195 -114.9510 64° Northeast 479 551 37,000  Level FlightAware ADS-B
Mon 03:30:27 PM 41.3493 -114.8700 64° Northeast 478 550 37,000  Level FlightAware ADS-B
Mon 03:31:14 PM 41.3870 -114.7710 63° Northeast 478 550 37,000  Level FlightAware ADS-B
Mon 03:32:33 PM 41.4712 -114.5360 64° Northeast 477 549 37,000  Level FlightAware ADS-B
Mon 03:33:03 PM 41.5001 -114.4560 64° Northeast 477 549 37,000  Level FlightAware ADS-B
Mon 03:33:34 PM 41.5289 -114.3760 64° Northeast 477 549 37,000  Level FlightAware ADS-B
Mon 03:34:04 PM 41.5577 -114.2960 64° Northeast 475 547 37,000  Level FlightAware ADS-B
Mon 03:34:36 PM 41.5878 -114.2130 64° Northeast 475 547 37,000  Level FlightAware ADS-B
Mon 03:35:06 PM 41.6163 -114.1330 64° Northeast 474 545 37,000  Level FlightAware ADS-B
Mon 03:35:36 PM 41.6450 -114.0530 64° Northeast 474 545 37,000  Level FlightAware ADS-B
Mon 03:36:13 PM 41.6795 -113.9560 65° Northeast 475 547 37,000  Level FlightAware ADS-B
Mon 03:36:50 PM 41.7147 -113.8570 65° Northeast 475 547 37,000  Level FlightAware ADS-B
Mon 03:37:22 PM 41.7442 -113.7730 65° Northeast 476 548 37,000  Level FlightAware ADS-B
Mon 03:37:55 PM 41.7751 -113.6850 65° Northeast 475 547 37,000  Level FlightAware ADS-B
Mon 03:38:25 PM 41.8033 -113.6050 65° Northeast 476 548 37,000  Level FlightAware ADS-B
Mon 03:38:58 PM 41.8346 -113.5160 65° Northeast 477 549 37,000  Level FlightAware ADS-B
Mon 03:39:34 PM 41.8670 -113.4240 65° Northeast 476 548 37,000  Level FlightAware ADS-B
Mon 03:40:11 PM 41.9000 -113.3270 65° Northeast 476 548 37,000  Level FlightAware ADS-B
Mon 03:40:48 PM 41.9360 -113.2230 65° Northeast 476 548 37,000  Level FlightAware ADS-B
Mon 03:41:34 PM 41.9770 -113.1040 65° Northeast 476 548 37,000 349 Level FlightAware ADS-B
Mon 03:42:14 PM 42.0150 -112.9940 65° Northeast 477 549 37,500 750 Climbing FlightAware ADS-B
Mon 03:42:46 PM 42.0460 -112.9060 65° Northeast 477 549 37,900 771 Climbing FlightAware ADS-B
Mon 03:43:24 PM 42.0800 -112.8050 66° East 476 548 38,400 740 Climbing FlightAware ADS-B
Mon 03:43:59 PM 42.1120 -112.7120 65° Northeast 477 549 38,800 529 Climbing FlightAware ADS-B
Mon 03:44:32 PM 42.1420 -112.6240 65° Northeast 477 549 39,000 169 Climbing FlightAware ADS-B
Mon 03:45:10 PM 42.1760 -112.5220 66° East 477 549 39,000  Level FlightAware ADS-B
Mon 03:45:56 PM 42.2150 -112.4070 65° Northeast 478 550 39,000  Level FlightAware ADS-B
Mon 03:46:45 PM 42.2570 -112.2780 66° East 482 555 39,000  Level FlightAware ADS-B
Mon 03:47:22 PM 42.2960 -112.1580 66° East 482 555 39,000  Level FlightAware ADS-B
Mon 03:48:05 PM 42.3310 -112.0510 66° East 482 555 39,000  Level FlightAware ADS-B
Mon 03:48:41 PM 42.3580 -111.9670 66° East 482 555 39,000  Level FlightAware ADS-B
Mon 03:48:58 PM 42.3818 -111.8920 67° East 483 556 39,000  Level FlightAware ADS-B
Mon 03:49:32 PM 42.4120 -111.7980 66° East 483 556 39,000  Level FlightAware ADS-B
Mon 03:50:02 PM 42.4387 -111.7150 66° East 484 557 39,000  Level FlightAware ADS-B
Mon 03:50:53 PM 42.4837 -111.5740 67° East 484 557 39,000  Level FlightAware ADS-B
Mon 03:51:25 PM 42.5117 -111.4860 67° East 483 556 39,000  Level FlightAware ADS-B
Mon 03:52:18 PM 42.5260 -111.4570 56° Northeast 482 555 39,000  Level FlightAware ADS-B
Mon 03:52:54 PM 42.5530 -111.3730 66° East 482 555 39,000  Level FlightAware ADS-B
Mon 03:53:30 PM 42.5810 -111.2880 66° East 482 555 39,000  Level FlightAware ADS-B
Mon 03:54:28 PM 42.6664 -110.9942 66° East 478 550 39,000  Level Salt Lake Center
Mon 03:55:30 PM 42.7189 -110.8264 67° East 483 556 39,000  Level Salt Lake Center
Mon 03:56:32 PM 42.7758 -110.6392 67° East 484 557 39,000  Level Salt Lake Center
Mon 03:57:34 PM 42.8261 -110.4756 67° East 478 550 39,000  Level Salt Lake Center
Mon 03:58:36 PM 42.8753 -110.3150 67° East 479 551 39,000  Level Salt Lake Center
Mon 03:59:38 PM 42.9308 -110.1333 67° East 479 551 39,000  Level Salt Lake Center
Mon 04:00:40 PM 42.9789 -109.9714 68° East 481 554 39,000  Level Salt Lake Center
Mon 04:01:42 PM 43.0378 -109.7750 68° East 485 558 39,000  Level Salt Lake Center
Mon 04:02:45 PM 43.0864 -109.6122 68° East 484 557 39,000  Level Salt Lake Center
Mon 04:03:46 PM 43.1414 -109.4222 68° East 482 555 39,000  Level Salt Lake Center
Mon 04:04:48 PM 43.1889 -109.2608 68° East 480 552 39,000  Level Salt Lake Center
Mon 04:05:50 PM 43.2453 -109.0697 68° East 481 554 39,000  Level Salt Lake Center
Mon 04:06:53 PM 43.2917 -108.9042 69° East 484 557 39,000  Level Salt Lake Center
Mon 04:07:55 PM 43.3475 -108.7144 68° East 482 555 39,000  Level Salt Lake Center
Mon 04:08:57 PM 43.3944 -108.5506 68° East 480 552 39,000  Level Salt Lake Center
Mon 04:09:59 PM 43.4411 -108.3869 69° East 481 554 39,000  Level Salt Lake Center
Mon 04:11:01 PM 43.4958 -108.1919 69° East 484 557 39,000  Level Salt Lake Center
Mon 04:12:03 PM 43.5450 -108.0278 68° East 486 559 39,000  Level Salt Lake Center
Mon 04:13:05 PM 43.5883 -107.8319 73° East 480 552 39,000  Level Salt Lake Center
Mon 04:14:07 PM 43.6211 -107.6614 75° East 479 551 39,000  Level Salt Lake Center
Mon 04:15:09 PM 43.6575 -107.4592 76° East 482 555 39,000  Level Salt Lake Center
Mon 04:16:11 PM 43.6911 -107.2906 75° East 479 551 39,000  Level Salt Lake Center
Mon 04:17:13 PM 43.7281 -107.0889 76° East 480 552 39,000  Level Salt Lake Center
Mon 04:18:15 PM 43.7603 -106.9175 75° East 481 554 39,000  Level Salt Lake Center
Mon 04:19:17 PM 43.7975 -106.7161 76° East 482 555 39,000  Level Salt Lake Center
Mon 04:20:19 PM 43.8308 -106.5428 75° East 485 558 39,000  Level Salt Lake Center
Mon 04:21:21 PM 43.8753 -106.3444 73° East 484 557 39,000  Level Salt Lake Center
Mon 04:22:23 PM 43.9153 -106.1739 72° East 484 557 39,000  Level Salt Lake Center
Mon 04:23:25 PM 43.9369 -105.9972 80° East 485 558 39,000  Level Salt Lake Center
Mon 04:24:27 PM 43.9614 -105.7892 81° East 487 560 39,000  Level Salt Lake Center
Mon 04:25:29 PM 43.9806 -105.6119 81° East 487 560 39,000  Level Salt Lake Center
Mon 04:26:31 PM 44.0058 -105.4031 80° East 490 564 39,000  Level Salt Lake Center
Mon 04:27:33 PM 44.0456 -105.2308 72° East 490 564 39,000  Level Salt Lake Center
Mon 04:28:35 PM 44.0925 -105.0314 72° East 487 560 39,000  Level Salt Lake Center
Mon 04:29:37 PM 44.1372 -104.8592 70° East 491 565 39,000  Level Salt Lake Center
Mon 04:30:39 PM 44.1908 -104.6614 69° East 489 563 39,000  Level Salt Lake Center
Mon 04:32:00 PM 44.2519 -104.4378 69° East 485 558 39,000  Level Denver Center
Mon 04:33:02 PM 44.3022 -104.2694 67° East 488 562 39,000  Level Denver Center
Mon 04:34:04 PM 44.3597 -104.0756 67° East 485 558 39,000  Level Denver Center
Mon 04:35:06 PM 44.3844 -103.8975 79° East 490 564 39,000  Level Denver Center
Mon 04:36:08 PM 44.3981 -103.6864 85° East 489 563 39,000  Level Denver Center
Mon 04:37:10 PM 44.4083 -103.5050 85° East 489 563 39,000  Level Denver Center
Mon 04:38:13 PM 44.4208 -103.2939 85° East 488 562 39,000  Level Denver Center
Mon 04:39:15 PM 44.4306 -103.1183 86° East 487 560 39,000  Level Denver Center
Mon 04:40:17 PM 44.4406 -102.9281 86° East 489 563 39,000  Level Denver Center
Mon 04:41:19 PM 44.4522 -102.7008 86° East 490 564 39,000  Level Denver Center
Mon 04:42:21 PM 44.4619 -102.5114 86° East 490 564 39,000  Level Denver Center
Mon 04:43:22 PM 44.4697 -102.3586 86° East 491 565 39,000  Level Denver Center
Mon 04:44:25 PM 44.4814 -102.1308 86° East 491 565 39,000  Level Denver Center
Mon 04:45:27 PM 44.4897 -101.9414 86° East 490 564 39,000  Level Denver Center
Mon 04:46:29 PM 44.4972 -101.7525 87° East 488 562 39,000  Level Denver Center
Mon 04:47:31 PM 44.5067 -101.5261 87° East 488 562 39,000  Level Denver Center
Mon 04:48:33 PM 44.5114 -101.3361 88° East 489 563 39,000  Level Denver Center
Mon 04:49:10 PM 44.5156 -101.2244 87° East 487 560 39,000  Level Minneapolis Center
Mon 04:50:12 PM 44.5228 -101.0367 87° East 486 559 39,000  Level Minneapolis Center
Mon 04:51:14 PM 44.5294 -100.8486 87° East 486 559 39,000  Level Minneapolis Center
Mon 04:52:16 PM 44.5358 -100.6583 87° East 488 562 39,000  Level Minneapolis Center
Mon 04:53:18 PM 44.5439 -100.4328 87° East 487 560 39,000  Level Minneapolis Center
Mon 04:54:20 PM 44.5489 -100.2425 88° East 491 565 39,000  Level Minneapolis Center
Mon 04:55:22 PM 44.5542 -100.0528 88° East 492 566 39,000  Level Minneapolis Center
Mon 04:56:25 PM 44.5597 -99.8625 88° East 493 567 39,000  Level Minneapolis Center
Mon 04:57:27 PM 44.5647 -99.6711 88° East 495 570 39,000  Level Minneapolis Center
Mon 04:58:29 PM 44.5711 -99.4417 88° East 495 570 39,000  Level Minneapolis Center
Mon 04:59:31 PM 44.5736 -99.2494 89° East 496 571 39,000  Level Minneapolis Center
Mon 05:04:51 PM 44.5930 -98.2140 89° East 492 566 39,000  Level FlightAware ADS-B
Mon 05:05:30 PM 44.5940 -98.0940 89° East 493 567 39,000  Level FlightAware ADS-B
Mon 05:06:09 PM 44.5950 -97.9880 89° East 493 567 39,000  Level FlightAware ADS-B
Mon 05:06:50 PM 44.6020 -97.8500 86° East 492 566 39,000  Level FlightAware ADS-B
Mon 05:07:25 PM 44.6090 -97.7210 86° East 492 566 39,000  Level FlightAware ADS-B
Mon 05:07:57 PM 44.6140 -97.6200 86° East 493 567 39,000  Level FlightAware ADS-B
Mon 05:08:33 PM 44.6200 -97.5040 86° East 493 567 39,000  Level FlightAware ADS-B
Mon 05:09:05 PM 44.6250 -97.4040 86° East 493 567 39,000  Level FlightAware ADS-B
Mon 05:09:41 PM 44.6310 -97.2920 86° East 494 568 39,000  Level FlightAware ADS-B
Mon 05:10:19 PM 44.6370 -97.1680 86° East 494 568 39,000  Level FlightAware ADS-B
Mon 05:10:51 PM 44.6420 -97.0660 86° East 496 571 39,000  Level FlightAware ADS-B
Mon 05:11:28 PM 44.6470 -96.9500 86° East 497 572 39,000  Level FlightAware ADS-B
Mon 05:12:02 PM 44.6520 -96.8370 86° East 497 572 39,000  Level FlightAware ADS-B
Mon 05:12:40 PM 44.6580 -96.7170 86° East 498 573 39,000  Level FlightAware ADS-B
Mon 05:13:14 PM 44.6620 -96.6090 87° East 499 574 39,000  Level FlightAware ADS-B
Mon 05:13:50 PM 44.6670 -96.4930 86° East 500 575 39,000  Level FlightAware ADS-B
Mon 05:14:25 PM 44.6720 -96.3800 86° East 501 577 39,000  Level FlightAware ADS-B
Mon 05:14:58 PM 44.6760 -96.2680 87° East 502 578 39,000  Level FlightAware ADS-B
Mon 05:15:32 PM 44.6810 -96.1570 86° East 502 578 39,000  Level FlightAware ADS-B
Mon 05:16:18 PM 44.6870 -96.0100 87° East 504 580 39,000  Level FlightAware ADS-B
Mon 05:16:50 PM 44.6900 -95.9050 88° East 505 581 39,000  Level FlightAware ADS-B
Mon 05:17:26 PM 44.6950 -95.7890 86° East 506 582 39,000  Level FlightAware ADS-B
Mon 05:18:02 PM 44.6990 -95.6700 87° East 508 585 39,000  Level FlightAware ADS-B
Mon 05:18:38 PM 44.7030 -95.5480 87° East 508 585 39,000  Level FlightAware ADS-B
Mon 05:19:09 PM 44.7060 -95.4510 87° East 508 585 39,000  Level FlightAware ADS-B
Mon 05:19:46 PM 44.7100 -95.3300 87° East 509 586 39,000  Level FlightAware ADS-B
Mon 05:20:20 PM 44.7140 -95.2120 87° East 509 586 39,000  Level FlightAware ADS-B
Mon 05:20:54 PM 44.7170 -95.1020 88° East 509 586 39,000  Level FlightAware ADS-B
Mon 05:21:31 PM 44.7200 -94.9810 88° East 510 587 39,000  Level FlightAware ADS-B
Mon 05:22:08 PM 44.7240 -94.8580 87° East 510 587 39,000  Level FlightAware ADS-B
Mon 05:22:40 PM 44.7270 -94.7490 88° East 510 587 39,000  Level FlightAware ADS-B
Mon 05:23:12 PM 44.7300 -94.6460 88° East 511 588 39,000  Level FlightAware ADS-B
Mon 05:23:48 PM 44.7330 -94.5250 88° East 511 588 39,000  Level FlightAware ADS-B
Mon 05:24:26 PM 44.7360 -94.3980 88° East 511 588 39,000  Level FlightAware ADS-B
Mon 05:25:02 PM 44.7380 -94.2820 89° East 511 588 39,000  Level FlightAware ADS-B
Mon 05:25:34 PM 44.7410 -94.1760 88° East 511 588 39,000  Level FlightAware ADS-B
Mon 05:26:11 PM 44.7430 -94.0540 89° East 512 589 39,000  Level FlightAware ADS-B
Mon 05:26:37 PM 44.7450 -93.9680 88° East 512 589 39,000  Level FlightAware ADS-B
Mon 05:27:14 PM 44.7470 -93.8450 89° East 511 588 39,000  Level FlightAware ADS-B
Mon 05:27:48 PM 44.7490 -93.7400 88° East 511 588 39,000  Level FlightAware ADS-B
Mon 05:28:28 PM 44.7520 -93.5980 88° East 511 588 39,000  Level FlightAware ADS-B
Mon 05:29:03 PM 44.7530 -93.4850 89° East 512 589 39,000  Level FlightAware ADS-B
Mon 05:29:42 PM 44.7550 -93.3530 89° East 514 592 39,000  Level FlightAware ADS-B
Mon 05:30:12 PM 44.7570 -93.2510 88° East 516 594 39,000  Level FlightAware ADS-B
Mon 05:30:49 PM 44.7550 -93.1330 91° East 517 595 39,000  Level FlightAware ADS-B
Mon 05:31:24 PM 44.7520 -93.0100 92° East 518 596 39,000  Level FlightAware ADS-B
Mon 05:31:58 PM 44.7490 -92.9030 92° East 518 596 39,000  Level FlightAware ADS-B
Mon 05:32:35 PM 44.7450 -92.7710 92° East 518 596 39,000  Level FlightAware ADS-B
Mon 05:33:11 PM 44.7410 -92.6510 93° East 519 597 39,000  Level FlightAware ADS-B
Mon 05:33:47 PM 44.7370 -92.5310 93° East 519 597 39,000  Level FlightAware ADS-B
Mon 05:34:19 PM 44.7330 -92.4230 93° East 519 597 39,000  Level FlightAware ADS-B
Mon 05:34:56 PM 44.7290 -92.3010 93° East 519 597 39,000  Level FlightAware ADS-B
Mon 05:35:27 PM 44.7250 -92.1920 93° East 518 596 39,000  Level FlightAware ADS-B
Mon 05:36:04 PM 44.7210 -92.0750 93° East 518 596 39,000  Level FlightAware ADS-B
Mon 05:36:41 PM 44.7160 -91.9420 93° East 519 597 39,000  Level FlightAware ADS-B
Mon 05:37:15 PM 44.7110 -91.8340 94° East 519 597 39,000  Level FlightAware ADS-B
Mon 05:37:51 PM 44.7060 -91.7090 93° East 520 598 39,000  Level FlightAware ADS-B
Mon 05:38:27 PM 44.7010 -91.5870 93° East 520 598 39,000  Level FlightAware ADS-B
Mon 05:39:01 PM 44.6970 -91.4750 93° East 520 598 39,000  Level FlightAware ADS-B
Mon 05:39:34 PM 44.6920 -91.3630 94° East 521 600 39,000  Level FlightAware ADS-B
Mon 05:40:11 PM 44.6860 -91.2360 94° East 522 601 39,000  Level FlightAware ADS-B
Mon 05:40:46 PM 44.6810 -91.1220 93° East 521 600 39,000  Level FlightAware ADS-B
Mon 05:41:23 PM 44.6750 -90.9930 94° East 521 600 39,000  Level FlightAware ADS-B
Mon 05:41:52 PM 44.6710 -90.9010 93° East 521 600 39,000  Level FlightAware ADS-B
Mon 05:42:31 PM 44.6640 -90.7650 94° East 520 598 39,000  Level FlightAware ADS-B
Mon 05:43:07 PM 44.6580 -90.6460 94° East 520 598 39,000  Level FlightAware ADS-B
Mon 05:43:42 PM 44.6520 -90.5290 94° East 520 598 39,000  Level FlightAware ADS-B
Mon 05:44:15 PM 44.6470 -90.4170 94° East 520 598 39,000  Level FlightAware ADS-B
Mon 05:44:51 PM 44.6410 -90.2960 94° East 519 597 39,000  Level FlightAware ADS-B
Mon 05:45:27 PM 44.6370 -90.1740 93° East 520 598 39,000  Level FlightAware ADS-B
Mon 05:46:03 PM 44.6340 -90.0540 92° East 520 598 39,000  Level FlightAware ADS-B
Mon 05:46:43 PM 44.6310 -89.9180 92° East 520 598 39,000  Level FlightAware ADS-B
Mon 05:47:15 PM 44.6300 -89.8110 91° East 520 598 39,000  Level FlightAware ADS-B
Mon 05:47:51 PM 44.6280 -89.6900 91° East 520 598 39,000  Level FlightAware ADS-B
Mon 05:48:21 PM 44.6260 -89.5950 92° East 521 600 39,000  Level FlightAware ADS-B
Mon 05:48:57 PM 44.6240 -89.4720 91° East 521 600 39,000  Level FlightAware ADS-B
Mon 05:49:33 PM 44.6220 -89.3460 91° East 522 601 39,000  Level FlightAware ADS-B
Mon 05:50:13 PM 44.6190 -89.2130 92° East 522 601 39,000  Level FlightAware ADS-B
Mon 05:50:49 PM 44.6160 -89.0960 92° East 522 601 39,000  Level FlightAware ADS-B
Mon 05:51:21 PM 44.6130 -88.9860 92° East 522 601 39,000  Level FlightAware ADS-B
Mon 05:51:57 PM 44.6100 -88.8690 92° East 522 601 39,000  Level FlightAware ADS-B
Mon 05:52:29 PM 44.6080 -88.7590 91° East 522 601 39,000  Level FlightAware ADS-B
Mon 05:53:07 PM 44.6040 -88.6360 93° East 521 600 39,000  Level FlightAware ADS-B
Mon 05:53:37 PM 44.6010 -88.5270 92° East 521 600 39,000  Level FlightAware ADS-B
Mon 05:54:16 PM 44.5970 -88.3920 92° East 521 600 39,000  Level FlightAware ADS-B
Mon 05:54:50 PM 44.5940 -88.2760 92° East 522 601 39,000  Level FlightAware ADS-B
Mon 05:55:22 PM 44.5900 -88.1690 93° East 522 601 39,000  Level FlightAware ADS-B
Mon 05:56:03 PM 44.5860 -88.0380 92° East 523 602 39,000  Level FlightAware ADS-B
Mon 05:56:40 PM 44.5820 -87.9080 92° East 524 603 39,000  Level FlightAware ADS-B
Mon 05:57:19 PM 44.5770 -87.7750 93° East 525 604 39,000  Level FlightAware ADS-B
Mon 05:58:05 PM 44.5730 -87.6340 92° East 525 604 39,000  Level FlightAware ADS-B
Mon 05:58:41 PM 44.5690 -87.5130 93° East 526 605 39,000  Level FlightAware ADS-B
Mon 05:59:21 PM 44.5620 -87.3620 94° East 528 608 39,000  Level FlightAware ADS-B
Mon 05:59:53 PM 44.5580 -87.2530 93° East 529 609 39,000  Level FlightAware ADS-B
Mon 06:00:29 PM 44.5530 -87.1320 93° East 530 610 39,000  Level FlightAware ADS-B
Mon 06:01:01 PM 44.5480 -87.0150 93° East 530 610 39,000  Level FlightAware ADS-B
Mon 06:01:36 PM 44.5430 -86.8960 93° East 531 611 39,000  Level FlightAware ADS-B
Mon 06:02:11 PM 44.5380 -86.7770 93° East 533 613 39,000  Level FlightAware ADS-B
Mon 06:02:51 PM 44.5320 -86.6400 93° East 533 613 39,000  Level FlightAware ADS-B
Mon 06:03:21 PM 44.5270 -86.5420 94° East 533 613 39,000  Level FlightAware ADS-B
Mon 06:04:00 PM 44.5210 -86.4010 93° East 533 613 39,000  Level FlightAware ADS-B
Mon 06:04:49 PM 44.5140 -86.2480 94° East 533 613 39,000  Level FlightAware ADS-B
Mon 06:05:24 PM 44.5070 -86.1120 94° East 534 615 39,000  Level FlightAware ADS-B
Mon 06:05:55 PM 44.5020 -86.0090 94° East 534 615 39,000  Level FlightAware ADS-B
Mon 06:06:35 PM 44.4940 -85.8690 95° East 535 616 39,000  Level FlightAware ADS-B
Mon 06:07:07 PM 44.4890 -85.7580 94° East 536 617 39,000  Level FlightAware ADS-B
Mon 06:07:44 PM 44.4820 -85.6290 94° East 537 618 39,000  Level FlightAware ADS-B
Mon 06:08:19 PM 44.4750 -85.5100 95° East 538 619 39,000  Level FlightAware ADS-B
Mon 06:08:55 PM 44.4680 -85.3840 94° East 538 619 39,000  Level FlightAware ADS-B
Mon 06:09:30 PM 44.4610 -85.2610 95° East 540 621 39,000  Level FlightAware ADS-B
Mon 06:10:03 PM 44.4550 -85.1490 94° East 540 621 39,000  Level FlightAware ADS-B
Mon 06:10:39 PM 44.4470 -85.0240 95° East 542 624 39,000  Level FlightAware ADS-B
Mon 06:11:09 PM 44.4410 -84.9170 94° East 542 624 39,000  Level FlightAware ADS-B
Mon 06:11:49 PM 44.4330 -84.7780 95° East 544 626 39,000  Level FlightAware ADS-B
Mon 06:12:25 PM 44.4250 -84.6550 95° East 544 626 39,000  Level FlightAware ADS-B
Mon 06:12:57 PM 44.4180 -84.5410 95° East 544 626 39,000  Level FlightAware ADS-B
Mon 06:13:33 PM 44.4100 -84.4160 95° East 543 625 39,000  Level FlightAware ADS-B
Mon 06:14:09 PM 44.4010 -84.2890 96° East 543 625 39,000  Level FlightAware ADS-B
Mon 06:14:45 PM 44.3930 -84.1630 95° East 543 625 39,000  Level FlightAware ADS-B
Mon 06:15:18 PM 44.3850 -84.0490 96° East 543 625 39,000  Level FlightAware ADS-B
Mon 06:15:54 PM 44.3760 -83.9210 96° East 543 625 39,000  Level FlightAware ADS-B
Mon 06:16:31 PM 44.3680 -83.7950 95° East 544 626 39,000  Level FlightAware ADS-B
Mon 06:17:03 PM 44.3600 -83.6830 96° East 545 627 39,000  Level FlightAware ADS-B
Mon 06:17:40 PM 44.3500 -83.5510 96° East 546 628 39,000  Level FlightAware ADS-B
Mon 06:18:10 PM 44.3430 -83.4460 95° East 546 628 39,000  Level FlightAware ADS-B
Mon 06:18:49 PM 44.3330 -83.3130 96° East 546 628 39,000  Level FlightAware ADS-B
Mon 06:19:25 PM 44.3240 -83.1910 96° East 548 631 39,000  Level FlightAware ADS-B
Mon 06:19:57 PM 44.3140 -83.0720 97° East 549 632 39,000  Level FlightAware ADS-B
Mon 06:20:29 PM 44.3060 -82.9650 96° East 550 633 39,000  Level FlightAware ADS-B
Mon 06:21:11 PM 44.2950 -82.8210 96° East 550 633 39,000  Level FlightAware ADS-B
Mon 06:21:44 PM 44.2850 -82.6970 96° East 551 634 39,000  Level FlightAware ADS-B
Mon 06:22:26 PM 44.2740 -82.5620 96° East 551 634 39,000  Level FlightAware ADS-B
Mon 06:22:56 PM 44.2660 -82.4590 96° East 551 634 39,000  Level FlightAware ADS-B
Mon 06:23:34 PM 44.2560 -82.3430 97° East 552 635 39,000  Level FlightAware ADS-B
Mon 06:24:25 PM 44.2530 -82.1560 91° East 555 639 39,000  Level FlightAware ADS-B
Mon 06:25:08 PM 44.2580 -81.9900 88° East 554 638 39,000  Level FlightAware ADS-B
Mon 06:25:45 PM 44.2620 -81.8740 87° East 555 639 39,000  Level FlightAware ADS-B
Mon 06:26:26 PM 44.2680 -81.7190 87° East 555 639 39,000  Level FlightAware ADS-B
Mon 06:26:56 PM 44.2710 -81.6130 88° East 556 640 39,000  Level FlightAware ADS-B
Mon 06:27:30 PM 44.2750 -81.4920 87° East 556 640 39,000  Level FlightAware ADS-B
Mon 06:28:07 PM 44.2790 -81.3560 88° East 556 640 39,000  Level FlightAware ADS-B
Mon 06:28:46 PM 44.2830 -81.2210 88° East 556 640 39,000  Level FlightAware ADS-B
Mon 06:29:17 PM 44.2860 -81.1110 88° East 556 640 39,000  Level FlightAware ADS-B
Mon 06:29:49 PM 44.2890 -80.9920 88° East 556 640 39,000  Level FlightAware ADS-B
Mon 06:30:27 PM 44.2920 -80.8530 88° East 556 640 39,000  Level FlightAware ADS-B
Mon 06:31:12 PM 44.2970 -80.6850 88° East 555 639 39,000  Level FlightAware ADS-B
Mon 06:31:54 PM 44.2990 -80.5560 89° East 555 639 39,000  Level FlightAware ADS-B
Mon 06:32:24 PM 44.3020 -80.4310 88° East 555 639 39,000  Level FlightAware ADS-B
Mon 06:33:02 PM 44.3050 -80.3050 88° East 555 639 39,000  Level FlightAware ADS-B
Mon 06:33:32 PM 44.3070 -80.2020 88° East 555 639 39,000  Level FlightAware ADS-B
Mon 06:34:11 PM 44.3090 -80.0620 89° East 556 640 39,000  Level FlightAware ADS-B
Mon 06:34:50 PM 44.3120 -79.9200 88° East 555 639 39,000  Level FlightAware ADS-B
Mon 06:35:25 PM 44.3140 -79.8100 89° East 555 639 39,000  Level FlightAware ADS-B
Mon 06:36:05 PM 44.3160 -79.6290 89° East 556 640 39,000  Level FlightAware ADS-B
Mon 06:36:36 PM 44.3180 -79.5240 88° East 556 640 39,000  Level FlightAware ADS-B
Mon 06:37:10 PM 44.3190 -79.4090 89° East 555 639 39,000  Level FlightAware ADS-B
Mon 06:37:56 PM 44.3170 -79.2340 91° East 554 638 39,000  Level FlightAware ADS-B
Mon 06:38:30 PM 44.2990 -79.1150 102° East 550 633 39,000  Level FlightAware ADS-B
Mon 06:39:09 PM 44.2720 -78.9920 107° East 549 632 39,000  Level FlightAware ADS-B
Mon 06:39:39 PM 44.2490 -78.8900 107° East 548 631 39,000  Level FlightAware ADS-B
Mon 06:40:15 PM 44.2180 -78.7560 108° East 548 631 39,000  Level FlightAware ADS-B
Mon 06:40:49 PM 44.1930 -78.6450 107° East 547 629 39,000  Level FlightAware ADS-B
Mon 06:41:29 PM 44.1620 -78.5120 108° East 547 629 39,000  Level FlightAware ADS-B
Mon 06:42:01 PM 44.1370 -78.4030 108° East 546 628 39,000  Level FlightAware ADS-B
Mon 06:42:33 PM 44.1130 -78.2990 108° East 545 627 39,000  Level FlightAware ADS-B
Mon 06:43:13 PM 44.0810 -78.1630 108° East 545 627 39,000  Level FlightAware ADS-B
Mon 06:43:45 PM 44.0560 -78.0560 108° East 544 626 39,000  Level FlightAware ADS-B
Mon 06:44:24 PM 44.0270 -77.9350 108° East 545 627 39,000  Level FlightAware ADS-B
Mon 06:44:57 PM 44.0000 -77.8200 108° East 545 627 39,000  Level FlightAware ADS-B
Mon 06:45:33 PM 43.9720 -77.7020 108° East 545 627 39,000  Level FlightAware ADS-B
Mon 06:46:05 PM 43.9460 -77.5960 109° East 545 627 39,000  Level FlightAware ADS-B
Mon 06:46:43 PM 43.9160 -77.4680 108° East 547 629 39,000  Level FlightAware ADS-B
Mon 06:47:19 PM 43.8860 -77.3480 109° East 548 631 39,000  Level FlightAware ADS-B
Mon 06:47:51 PM 43.8600 -77.2400 108° East 550 633 39,000  Level FlightAware ADS-B
Mon 06:48:27 PM 43.8310 -77.1220 109° East 552 635 39,000  Level FlightAware ADS-B
Mon 06:49:01 PM 43.8030 -77.0070 109° East 553 636 39,000  Level FlightAware ADS-B
Mon 06:49:37 PM 43.7730 -76.8880 109° East 553 636 39,000  Level FlightAware ADS-B
Mon 06:50:11 PM 43.7440 -76.7750 110° East 550 633 39,000  Level FlightAware ADS-B
Mon 06:50:47 PM 43.6940 -76.6720 124° Southeast 533 613 39,000  Level FlightAware ADS-B
Mon 06:51:23 PM 43.6320 -76.5870 135° Southeast 528 608 39,000  Level FlightAware ADS-B
Mon 06:51:57 PM 43.5770 -76.5140 136° Southeast 528 608 39,000  Level FlightAware ADS-B
Mon 06:52:31 PM 43.5130 -76.4290 136° Southeast 529 609 39,000  Level FlightAware ADS-B
Mon 06:53:09 PM 43.4440 -76.3390 137° Southeast 531 611 39,000  Level FlightAware ADS-B
Mon 06:53:41 PM 43.3870 -76.2640 136° Southeast 531 611 39,000  Level FlightAware ADS-B
Mon 06:54:17 PM 43.3240 -76.1810 136° Southeast 531 611 39,000  Level FlightAware ADS-B
Mon 06:54:51 PM 43.2640 -76.1040 137° Southeast 530 610 39,000  Level FlightAware ADS-B
Mon 06:55:25 PM 43.2040 -76.0240 136° Southeast 529 609 39,000  Level FlightAware ADS-B
Mon 06:56:01 PM 43.1400 -75.9420 137° Southeast 529 609 39,000  Level FlightAware ADS-B
Mon 06:56:37 PM 43.0750 -75.8580 137° Southeast 529 609 39,000  Level FlightAware ADS-B
Mon 06:57:13 PM 43.0130 -75.7770 136° Southeast 528 608 39,000  Level FlightAware ADS-B
Mon 06:57:45 PM 42.9540 -75.7020 137° Southeast 525 604 39,000  Level FlightAware ADS-B
Mon 06:58:21 PM 42.8920 -75.6230 137° Southeast 523 602 39,000  Level FlightAware ADS-B
Mon 06:58:53 PM 42.8350 -75.5500 137° Southeast 520 598 39,000 -343 Level FlightAware ADS-B
Mon 06:59:31 PM 42.7690 -75.4650 137° Southeast 518 596 38,600 -973 Descending FlightAware ADS-B
Mon 07:00:07 PM 42.7050 -75.3840 137° Southeast 523 602 37,800 -1,167 Descending FlightAware ADS-B
Mon 07:00:43 PM 42.6420 -75.3040 137° Southeast 522 601 37,200 -794 Descending FlightAware ADS-B
Mon 07:01:15 PM 42.5840 -75.2300 137° Southeast 520 598 36,900 -794 Descending FlightAware ADS-B
Mon 07:01:51 PM 42.5220 -75.1520 137° Southeast 520 598 36,300 -1,083 Descending FlightAware ADS-B
Mon 07:02:27 PM 42.4590 -75.0730 137° Southeast 517 595 35,600 -1,391 Descending FlightAware ADS-B
Mon 07:03:00 PM 42.4030 -75.0030 137° Southeast 516 594 34,700 -720 Descending FlightAware ADS-B
Mon 07:03:42 PM 42.3430 -74.9270 137° Southeast 516 594 34,700 -1,615 Level FlightAware ADS-B
Mon 07:04:18 PM 42.2740 -74.8420 138° Southeast 522 601 32,600 -2,512 Descending FlightAware ADS-B
Mon 07:05:08 PM 42.1860 -74.7330 137° Southeast 522 601 31,100 -1,929 Descending FlightAware ADS-B
Mon 07:05:42 PM 42.1170 -74.6470 137° Southeast 518 596 29,900 -1,429 Descending FlightAware ADS-B
Mon 07:06:32 PM 42.0350 -74.5440 137° Southeast 517 595 29,100 -1,759 Descending FlightAware ADS-B
Mon 07:06:40 PM 42.0137 -74.5191 139° Southeast 512 589 28,200 -1,500 Descending FlightAware ADS-B
Mon 07:07:16 PM 41.9580 -74.4350 132° Southeast 515 593 28,000 -279 Descending FlightAware ADS-B
Mon 07:07:23 PM 41.9472 -74.4131 124° Southeast 515 593 28,000 -462 Level FlightAware ADS-B
Mon 07:07:55 PM 41.9000 -74.3350 129° Southeast 507 583 27,700 -941 Descending FlightAware ADS-B
Mon 07:08:14 PM 41.8671 -74.2964 139° Southeast 514 592 27,200 -1,875 Descending FlightAware ADS-B
Mon 07:08:27 PM 41.8416 -74.2734 146° Southeast 495 570 26,700 -2,286 Descending FlightAware ADS-B
Mon 07:08:35 PM 41.8255 -74.2615 151° Southeast 483 556 26,400 -2,195 Descending FlightAware ADS-B
Mon 07:09:08 PM 41.7610 -74.2270 158° South 455 524 25,200 -2,421 Descending FlightAware ADS-B
Mon 07:09:32 PM 41.7122 -74.2060 162° South 447 514 24,100 -2,542 Descending FlightAware ADS-B
Mon 07:10:07 PM 41.6450 -74.1772 162° South 441 507 22,700 -2,400 Descending FlightAware ADS-B
Mon 07:10:37 PM 41.5869 -74.1520 162° South 437 503 21,500 -2,323 Descending FlightAware ADS-B
Mon 07:11:09 PM 41.5259 -74.1252 162° South 428 493 20,300 -1,385 Descending FlightAware ADS-B
Mon 07:11:42 PM 41.4641 -74.0980 162° South 423 487 20,000 -273 Descending FlightAware ADS-B
Mon 07:12:15 PM 41.4035 -74.0733 163° South 411 473 20,000  Level FlightAware ADS-B
Mon 07:12:23 PM 41.3882 -74.0701 171° South 409 471 20,000  Level FlightAware ADS-B
Mon 07:12:42 PM 41.3533 -74.0688 178° South 403 464 20,000  Level FlightAware ADS-B
Mon 07:13:23 PM 41.2775 -74.0797 186° South 404 465 20,000  Level FlightAware ADS-B
Mon 07:13:56 PM 41.2162 -74.0892 187° South 405 466 20,000  Level FlightAware ADS-B
Mon 07:14:27 PM 41.1584 -74.0981 187° South 409 471 20,000 -387 Level FlightAware ADS-B
Mon 07:14:58 PM 41.0996 -74.1071 187° South 409 471 19,600 -844 Descending FlightAware ADS-B
Mon 07:15:31 PM 41.0385 -74.1163 186° South 392 451 19,100 -571 Descending FlightAware ADS-B
Mon 07:16:01 PM 40.9865 -74.1240 186° South 360 414 19,000 -133 Descending FlightAware ADS-B
Mon 07:16:16 PM 40.9623 -74.1263 184° South 348 400 19,000  Level FlightAware ADS-B
Mon 07:16:27 PM 40.9440 -74.1241 175° South 346 398 19,000 -286 Level FlightAware ADS-B
Mon 07:16:58 PM 40.8964 -74.1126 170° South 342 394 18,800 -968 Descending FlightAware ADS-B
Mon 07:17:29 PM 40.8488 -74.1010 170° South 337 388 18,000 -1,660 Descending FlightAware ADS-B
Mon 07:17:45 PM 40.8238 -74.0952 170° South 337 388 17,500 -1,765 Descending FlightAware ADS-B
Mon 07:17:46 PM 40.8219 -74.0946 167° South 337 388 17,500 -1,364 Level FlightAware ADS-B
Mon 07:18:07 PM 40.7906 -74.0824 164° South 338 389 17,000 -1,448 Descending FlightAware ADS-B
Mon 07:18:15 PM 40.7786 -74.0771 162° South 337 388 16,800 -1,714 Descending FlightAware ADS-B
Mon 07:18:42 PM 40.7396 -74.0595 161° South 337 388 16,000 -1,742 Descending FlightAware ADS-B
Mon 07:18:46 PM 40.7329 -74.0564 161° South 336 387 15,900 -1,371 Descending FlightAware ADS-B
Mon 07:19:17 PM 40.6887 -74.0364 161° South 330 380 15,200 -1,424 Descending FlightAware ADS-B
Mon 07:19:45 PM 40.6474 -74.0175 161° South 331 381 14,500 -1,500 Descending FlightAware ADS-B
Mon 07:19:49 PM 40.6415 -74.0148 161° South 328 377 14,400 -1,543 Descending FlightAware ADS-B
Mon 07:20:20 PM 40.5983 -73.9954 161° South 325 374 13,600 -1,377 Descending FlightAware ADS-B
Mon 07:20:50 PM 40.5558 -73.9766 161° South 322 371 13,000 -1,082 Descending FlightAware ADS-B
Mon 07:21:21 PM 40.5128 -73.9579 162° South 315 362 12,500 -1,406 Descending FlightAware ADS-B
Mon 07:21:54 PM 40.4667 -73.9388 163° South 307 353 11,500 -1,875 Descending FlightAware ADS-B
Mon 07:22:25 PM 40.4253 -73.9221 163° South 302 348 10,500 -1,957 Descending FlightAware ADS-B
Mon 07:22:40 PM 40.4048 -73.9137 163° South 301 346 10,000 -2,200 Descending FlightAware ADS-B
Mon 07:22:55 PM 40.3847 -73.9055 163° South 299 344 9,400 -1,935 Descending FlightAware ADS-B
Mon 07:23:11 PM 40.3640 -73.8969 162° South 299 344 9,000 -1,579 Descending FlightAware ADS-B
Mon 07:23:33 PM 40.3363 -73.8829 159° South 301 346 8,400 -1,400 Descending FlightAware ADS-B
Mon 07:23:41 PM 40.3270 -73.8751 147° Southeast 301 346 8,300 -1,034 Descending FlightAware ADS-B
Mon 07:24:02 PM 40.3037 -73.8529 144° Southeast 296 341 7,900 -1,263 Descending FlightAware ADS-B
Mon 07:24:19 PM 40.2856 -73.8335 141° Southeast 295 339 7,500 -1,200 Descending FlightAware ADS-B
Mon 07:24:22 PM 40.2829 -73.8292 129° Southeast 298 343 7,500 -1,059 Level FlightAware ADS-B
Mon 07:24:36 PM 40.2730 -73.8066 120° Southeast 297 342 7,200 -1,273 Descending FlightAware ADS-B
Mon 07:24:55 PM 40.2622 -73.7763 115° Southeast 295 339 6,800 -1,350 Descending FlightAware ADS-B
Mon 07:25:16 PM 40.2509 -73.7425 114° Southeast 295 339 6,300 -1,263 Descending FlightAware ADS-B
Mon 07:25:33 PM 40.2498 -73.7126 93° East 295 339 6,000 -1,111 Descending FlightAware ADS-B
Mon 07:25:43 PM 40.2545 -73.6963 69° East 288 331 5,800 -1,364 Descending FlightAware ADS-B
Mon 07:25:55 PM 40.2647 -73.6803 50° Northeast 281 323 5,500 -1,412 Descending FlightAware ADS-B
Mon 07:26:00 PM 40.2705 -73.6747 36° Northeast 278 320 5,400 -1,143 Descending FlightAware ADS-B
Mon 07:26:16 PM 40.2874 -73.6614 31° Northeast 278 320 5,100 -1,200 Descending FlightAware ADS-B
Mon 07:26:25 PM 40.2976 -73.6538 30° Northeast 275 316 4,900 -1,385 Descending FlightAware ADS-B
Mon 07:26:42 PM 40.3160 -73.6403 29° Northeast 274 315 4,500 -1,038 Descending FlightAware ADS-B
Mon 07:27:17 PM 40.3540 -73.6130 29° Northeast 271 312 4,000 -517 Descending FlightAware ADS-B
Mon 07:27:40 PM 40.3803 -73.5938 29° Northeast 273 314 4,000  Level FlightAware ADS-B
Mon 07:28:22 PM 40.4260 -73.5610 29° Northeast 271 312 4,000  Level FlightAware ADS-B
Mon 07:28:42 PM 40.4490 -73.5450 28° Northeast 270 311 4,000  Level FlightAware ADS-B
Mon 07:29:03 PM 40.4710 -73.5280 30° Northeast 268 308 4,000  Level FlightAware ADS-B
Mon 07:29:24 PM 40.4930 -73.5130 27° Northeast 269 310 4,000  Level FlightAware ADS-B
Mon 07:29:40 PM 40.5110 -73.5000 29° Northeast 269 310 4,000  Level FlightAware ADS-B
Mon 07:30:00 PM 40.5340 -73.4830 29° Northeast 271 312 4,000  Level FlightAware ADS-B
Mon 07:30:16 PM 40.5510 -73.4710 28° Northeast 270 311 4,000  Level FlightAware ADS-B
Mon 07:30:36 PM 40.5730 -73.4550 29° Northeast 271 312 4,000  Level FlightAware ADS-B
Mon 07:30:55 PM 40.5940 -73.4400 28° Northeast 271 312 4,000  Level FlightAware ADS-B
Mon 07:31:11 PM 40.6120 -73.4270 29° Northeast 271 312 4,000  Level FlightAware ADS-B
Mon 07:31:27 PM 40.6300 -73.4140 29° Northeast 272 313 4,000  Level FlightAware ADS-B
Mon 07:31:44 PM 40.6490 -73.4060 18° North 268 308 4,000  Level FlightAware ADS-B
Mon 07:32:08 PM 40.6770 -73.4180 342° North 262 302 4,000  Level FlightAware ADS-B
Mon 07:32:24 PM 40.6940 -73.4320 328° Northwest 263 303 4,000  Level FlightAware ADS-B
Mon 07:32:39 PM 40.7100 -73.4450 328° Northwest 263 303 4,000  Level FlightAware ADS-B
Mon 07:33:04 PM 40.7350 -73.4660 328° Northwest 259 298 4,000  Level FlightAware ADS-B
Mon 07:33:20 PM 40.7500 -73.4790 327° Northwest 258 297 4,000 -439 Level FlightAware ADS-B
Mon 07:33:45 PM 40.7740 -73.5030 323° Northwest 254 292 3,700 -913 Descending FlightAware ADS-B
Mon 07:34:06 PM 40.7910 -73.5240 317° Northwest 249 287 3,300 -900 Descending FlightAware ADS-B
Mon 07:34:25 PM 40.8080 -73.5440 318° Northwest 232 267 3,100 -450 Descending FlightAware ADS-B
Mon 07:34:46 PM 40.8230 -73.5630 316° Northwest 204 235 3,000 -207 Descending FlightAware ADS-B
Mon 07:34:54 PM 40.8280 -73.5690 318° Northwest 195 224 3,000  Level FlightAware ADS-B
Mon 07:35:02 PM 40.8310 -73.5770 296° West 188 216 3,000  Level FlightAware ADS-B
Mon 07:35:06 PM 40.8320 -73.5830 282° West 185 213 3,000  Level FlightAware ADS-B
Mon 07:35:28 PM 40.8250 -73.6050 247° West 188 216 3,000  Level FlightAware ADS-B
Mon 07:35:46 PM 40.8160 -73.6210 233° Southwest 189 217 3,000  Level FlightAware ADS-B
Mon 07:36:11 PM 40.8030 -73.6460 236° Southwest 186 214 3,000  Level FlightAware ADS-B
Mon 07:36:24 PM 40.7970 -73.6570 234° Southwest 188 216 3,000  Level FlightAware ADS-B
Mon 07:36:32 PM 40.7920 -73.6620 217° Southwest 188 216 3,000 -231 Level FlightAware ADS-B
Mon 07:36:50 PM 40.7770 -73.6740 211° Southwest 189 217 2,900 -682 Descending FlightAware ADS-B
Mon 07:37:16 PM 40.7570 -73.6890 210° Southwest 192 221 2,500 -913 Descending FlightAware ADS-B
Mon 07:37:36 PM 40.7420 -73.6990 207° Southwest 191 220 2,200 -900 Descending FlightAware ADS-B
Mon 07:37:56 PM 40.7270 -73.7100 209° Southwest 178 205 1,900 -900 Descending FlightAware ADS-B
Mon 07:38:16 PM 40.7130 -73.7190 206° Southwest 157 181 1,600 -837 Descending FlightAware ADS-B
Mon 07:38:39 PM 40.6980 -73.7300 209° Southwest 139 160 1,300 -837 Descending FlightAware ADS-B
Mon 07:38:59 PM 40.6880 -73.7370 208° Southwest 132 152 1,000 -732 Descending FlightAware ADS-B
Mon 07:39:20 PM 40.6770 -73.7450 209° Southwest 132 152 800 -714 Descending FlightAware ADS-B
Mon 07:39:41 PM 40.6650 -73.7530 207° Southwest 132 152 500 -732 Descending FlightAware ADS-B
Mon 07:40:01 PM 40.6540 -73.7610 209° Southwest 134 154 300 -600 Descending FlightAware ADS-B
Mon 07:40:22 PM 40.6430 -73.7690 209° Southwest 137 158 -857 Descending FlightAware ADS-B
Mon 07:40:46 PM 40.6320 -73.7780 212° Southwest 84 97  Level FlightAware ADS-B

Login

Don't have an account? Register now (free) for customized features, flight alerts, and more!